sensor_id;sensor_type;location;lat;lon;timestamp;pressure;altitude;pressure_sealevel;temperature;humidity
54038;BME280;39954;48.844;9.726;2022-07-29T00:00:30;95935.13;;;15.78;100.00
54038;BME280;39954;48.844;9.726;2022-07-29T00:01:32;95924.53;;;15.80;100.00
54038;BME280;39954;48.844;9.726;2022-07-29T00:02:37;95927.84;;;15.82;100.00
54038;BME280;39954;48.844;9.726;2022-07-29T00:03:39;95927.59;;;15.85;100.00
54038;BME280;39954;48.844;9.726;2022-07-29T00:04:44;95929.16;;;15.87;100.00
54038;BME280;39954;48.844;9.726;2022-07-29T00:05:49;95926.28;;;15.91;100.00
54038;BME280;39954;48.844;9.726;2022-07-29T00:06:51;95925.44;;;15.90;100.00
54038;BME280;39954;48.844;9.726;2022-07-29T00:07:56;95926.06;;;15.94;100.00
54038;BME280;39954;48.844;9.726;2022-07-29T00:08:58;95936.06;;;15.88;100.00
54038;BME280;39954;48.844;9.726;2022-07-29T00:10:03;95928.25;;;15.77;100.00
54038;BME280;39954;48.844;9.726;2022-07-29T00:11:06;95927.78;;;15.72;100.00
54038;BME280;39954;48.844;9.726;2022-07-29T00:12:11;95936.81;;;15.68;100.00
54038;BME280;39954;48.844;9.726;2022-07-29T00:13:14;95935.88;;;15.69;100.00
54038;BME280;39954;48.844;9.726;2022-07-29T00:14:35;95936.94;;;15.78;100.00
54038;BME280;39954;48.844;9.726;2022-07-29T00:15:40;95935.50;;;15.74;100.00
54038;BME280;39954;48.844;9.726;2022-07-29T00:16:42;95936.34;;;15.74;100.00
54038;BME280;39954;48.844;9.726;2022-07-29T00:17:47;95932.75;;;15.75;100.00
54038;BME280;39954;48.844;9.726;2022-07-29T00:18:49;95930.25;;;15.74;100.00
54038;BME280;39954;48.844;9.726;2022-07-29T00:19:53;95934.56;;;15.75;100.00
54038;BME280;39954;48.844;9.726;2022-07-29T00:20:56;95935.59;;;15.83;100.00
54038;BME280;39954;48.844;9.726;2022-07-29T00:22:00;95934.38;;;15.87;100.00
54038;BME280;39954;48.844;9.726;2022-07-29T00:23:02;95930.38;;;15.83;100.00
54038;BME280;39954;48.844;9.726;2022-07-29T00:24:09;95937.00;;;15.87;100.00
54038;BME280;39954;48.844;9.726;2022-07-29T00:25:12;95924.03;;;15.86;100.00
54038;BME280;39954;48.844;9.726;2022-07-29T00:26:17;95935.59;;;15.83;100.00
54038;BME280;39954;48.844;9.726;2022-07-29T00:27:19;95936.69;;;15.81;100.00
54038;BME280;39954;48.844;9.726;2022-07-29T00:28:23;95932.50;;;15.78;100.00
54038;BME280;39954;48.844;9.726;2022-07-29T00:29:26;95935.28;;;15.77;100.00
54038;BME280;39954;48.844;9.726;2022-07-29T00:30:37;95932.75;;;15.75;100.00
54038;BME280;39954;48.844;9.726;2022-07-29T00:31:40;95931.34;;;15.71;100.00
54038;BME280;39954;48.844;9.726;2022-07-29T00:32:44;95933.72;;;15.74;100.00
54038;BME280;39954;48.844;9.726;2022-07-29T00:33:47;95931.09;;;15.74;100.00
54038;BME280;39954;48.844;9.726;2022-07-29T00:34:51;95928.09;;;15.79;100.00
54038;BME280;39954;48.844;9.726;2022-07-29T00:36:08;95938.47;;;15.80;100.00
54038;BME280;39954;48.844;9.726;2022-07-29T00:37:10;95939.19;;;15.82;100.00
54038;BME280;39954;48.844;9.726;2022-07-29T00:38:14;95938.22;;;15.83;100.00
54038;BME280;39954;48.844;9.726;2022-07-29T00:39:19;95936.56;;;15.82;100.00
54038;BME280;39954;48.844;9.726;2022-07-29T00:40:21;95931.09;;;15.85;100.00
54038;BME280;39954;48.844;9.726;2022-07-29T00:41:26;95937.25;;;15.84;100.00
54038;BME280;39954;48.844;9.726;2022-07-29T00:42:28;95939.88;;;15.84;100.00
54038;BME280;39954;48.844;9.726;2022-07-29T00:43:33;95935.47;;;15.85;100.00
54038;BME280;39954;48.844;9.726;2022-07-29T00:44:38;95939.88;;;15.84;100.00
54038;BME280;39954;48.844;9.726;2022-07-29T00:45:43;95934.13;;;15.91;100.00
54038;BME280;39954;48.844;9.726;2022-07-29T00:46:48;95934.38;;;15.87;100.00
54038;BME280;39954;48.844;9.726;2022-07-29T00:47:50;95930.13;;;15.86;100.00
54038;BME280;39954;48.844;9.726;2022-07-29T00:48:55;95930.13;;;15.86;100.00
54038;BME280;39954;48.844;9.726;2022-07-29T00:49:57;95928.22;;;15.88;100.00
54038;BME280;39954;48.844;9.726;2022-07-29T00:51:05;95931.66;;;15.89;100.00
54038;BME280;39954;48.844;9.726;2022-07-29T00:52:10;95935.09;;;15.89;100.00
54038;BME280;39954;48.844;9.726;2022-07-29T00:53:19;95936.53;;;15.94;100.00
54038;BME280;39954;48.844;9.726;2022-07-29T00:54:24;95920.56;;;15.97;100.00
54038;BME280;39954;48.844;9.726;2022-07-29T00:55:27;95930.09;;;15.98;100.00
54038;BME280;39954;48.844;9.726;2022-07-29T00:56:32;95921.50;;;15.96;100.00
54038;BME280;39954;48.844;9.726;2022-07-29T00:57:35;95923.88;;;15.99;100.00
54038;BME280;39954;48.844;9.726;2022-07-29T00:58:40;95922.94;;;16.00;100.00
54038;BME280;39954;48.844;9.726;2022-07-29T00:59:42;95904.78;;;16.08;100.00
54038;BME280;39954;48.844;9.726;2022-07-29T01:00:49;95911.13;;;16.05;100.00
54038;BME280;39954;48.844;9.726;2022-07-29T01:01:51;95910.03;;;16.08;100.00
54038;BME280;39954;48.844;9.726;2022-07-29T01:02:57;95908.09;;;16.10;100.00
54038;BME280;39954;48.844;9.726;2022-07-29T01:04:02;95904.53;;;16.11;100.00
54038;BME280;39954;48.844;9.726;2022-07-29T01:05:05;95908.06;;;16.21;100.00
54038;BME280;39954;48.844;9.726;2022-07-29T01:06:11;95896.22;;;16.27;100.00
54038;BME280;39954;48.844;9.726;2022-07-29T01:07:13;95906.59;;;16.28;100.00
54038;BME280;39954;48.844;9.726;2022-07-29T01:08:18;95897.09;;;16.27;100.00
54038;BME280;39954;48.844;9.726;2022-07-29T01:09:22;95895.16;;;16.29;100.00
54038;BME280;39954;48.844;9.726;2022-07-29T01:10:47;95900.75;;;16.36;100.00
54038;BME280;39954;48.844;9.726;2022-07-29T01:11:53;95899.66;;;16.39;100.00
54038;BME280;39954;48.844;9.726;2022-07-29T01:12:58;95898.56;;;16.41;100.00
54038;BME280;39954;48.844;9.726;2022-07-29T01:14:09;95897.44;;;16.44;100.00
54038;BME280;39954;48.844;9.726;2022-07-29T01:15:12;95891.38;;;16.43;100.00
54038;BME280;39954;48.844;9.726;2022-07-29T01:16:21;95893.06;;;16.44;100.00
54038;BME280;39954;48.844;9.726;2022-07-29T01:17:35;95887.69;;;16.46;100.00
54038;BME280;39954;48.844;9.726;2022-07-29T01:18:43;95880.91;;;16.43;100.00
54038;BME280;39954;48.844;9.726;2022-07-29T01:19:54;95880.44;;;16.38;100.00
54038;BME280;39954;48.844;9.726;2022-07-29T01:21:23;95881.72;;;16.44;100.00
54038;BME280;39954;48.844;9.726;2022-07-29T01:22:41;95875.91;;;16.40;100.00
54038;BME280;39954;48.844;9.726;2022-07-29T01:24:02;95882.25;;;16.38;100.00
54038;BME280;39954;48.844;9.726;2022-07-29T01:25:29;95881.41;;;16.37;100.00
54038;BME280;39954;48.844;9.726;2022-07-29T01:26:52;95883.47;;;16.33;100.00
54038;BME280;39954;48.844;9.726;2022-07-29T01:28:11;95885.25;;;16.33;100.00
54038;BME280;39954;48.844;9.726;2022-07-29T01:29:24;95886.09;;;16.33;100.00
54038;BME280;39954;48.844;9.726;2022-07-29T01:30:39;95891.34;;;16.33;100.00
54038;BME280;39954;48.844;9.726;2022-07-29T01:31:47;95889.41;;;16.36;100.00
54038;BME280;39954;48.844;9.726;2022-07-29T01:33:06;95890.34;;;16.34;100.00
54038;BME280;39954;48.844;9.726;2022-07-29T01:34:13;95894.78;;;16.34;100.00
54038;BME280;39954;48.844;9.726;2022-07-29T01:35:23;95898.22;;;16.34;100.00
54038;BME280;39954;48.844;9.726;2022-07-29T01:36:31;95894.88;;;16.32;100.00
54038;BME280;39954;48.844;9.726;2022-07-29T01:37:39;95895.88;;;16.31;100.00
54038;BME280;39954;48.844;9.726;2022-07-29T01:38:52;95899.44;;;16.30;100.00
54038;BME280;39954;48.844;9.726;2022-07-29T01:39:59;95900.38;;;16.29;100.00
54038;BME280;39954;48.844;9.726;2022-07-29T01:41:06;95897.09;;;16.27;100.00
54038;BME280;39954;48.844;9.726;2022-07-29T01:42:22;95903.88;;;16.30;100.00
54038;BME280;39954;48.844;9.726;2022-07-29T01:43:38;95891.34;;;16.33;100.00
54038;BME280;39954;48.844;9.726;2022-07-29T01:44:50;95894.88;;;16.32;100.00
54038;BME280;39954;48.844;9.726;2022-07-29T01:45:58;95903.97;;;16.28;100.00
54038;BME280;39954;48.844;9.726;2022-07-29T01:47:09;95897.09;;;16.27;100.00
54038;BME280;39954;48.844;9.726;2022-07-29T01:48:20;95891.69;;;16.29;100.00
54038;BME280;39954;48.844;9.726;2022-07-29T01:49:27;95895.16;;;16.29;100.00
54038;BME280;39954;48.844;9.726;2022-07-29T01:50:35;95892.41;;;16.31;100.00
54038;BME280;39954;48.844;9.726;2022-07-29T01:51:44;95888.97;;;16.30;100.00
54038;BME280;39954;48.844;9.726;2022-07-29T01:52:54;95890.75;;;16.30;100.00
54038;BME280;39954;48.844;9.726;2022-07-29T01:54:04;95896.84;;;16.30;100.00
54038;BME280;39954;48.844;9.726;2022-07-29T01:55:12;95902.06;;;16.30;100.00
54038;BME280;39954;48.844;9.726;2022-07-29T01:56:19;95896.22;;;16.27;100.00
54038;BME280;39954;48.844;9.726;2022-07-29T01:57:26;95893.88;;;16.24;100.00
54038;BME280;39954;48.844;9.726;2022-07-29T01:58:33;95897.72;;;16.20;100.00
54038;BME280;39954;48.844;9.726;2022-07-29T01:59:37;95896.16;;;16.17;100.00
54038;BME280;39954;48.844;9.726;2022-07-29T02:00:46;95893.19;;;16.22;100.00
54038;BME280;39954;48.844;9.726;2022-07-29T02:01:52;95894.06;;;16.32;100.00
54038;BME280;39954;48.844;9.726;2022-07-29T02:02:59;95894.41;;;16.39;100.00
54038;BME280;39954;48.844;9.726;2022-07-29T02:04:05;95888.31;;;16.38;100.00
54038;BME280;39954;48.844;9.726;2022-07-29T02:05:14;95884.59;;;16.41;100.00
54038;BME280;39954;48.844;9.726;2022-07-29T02:06:19;95884.34;;;16.44;100.00
54038;BME280;39954;48.844;9.726;2022-07-29T02:07:28;95882.13;;;16.39;100.00
54038;BME280;39954;48.844;9.726;2022-07-29T02:08:32;95888.38;;;16.48;100.00
54038;BME280;39954;48.844;9.726;2022-07-29T02:09:39;95885.75;;;16.48;100.00
54038;BME280;39954;48.844;9.726;2022-07-29T02:10:42;95882.06;;;16.50;100.00
54038;BME280;39954;48.844;9.726;2022-07-29T02:11:52;95887.16;;;16.52;100.00
54038;BME280;39954;48.844;9.726;2022-07-29T02:12:55;95882.31;;;16.47;100.00
54038;BME280;39954;48.844;9.726;2022-07-29T02:14:01;95885.31;;;16.43;100.00
54038;BME280;39954;48.844;9.726;2022-07-29T02:15:06;95889.16;;;16.39;100.00
54038;BME280;39954;48.844;9.726;2022-07-29T02:16:15;95890.63;;;16.31;100.00
54038;BME280;39954;48.844;9.726;2022-07-29T02:17:22;95886.34;;;16.30;100.00
54038;BME280;39954;48.844;9.726;2022-07-29T02:18:30;95883.53;;;16.22;100.00
54038;BME280;39954;48.844;9.726;2022-07-29T02:19:32;95893.09;;;16.12;100.00
54038;BME280;39954;48.844;9.726;2022-07-29T02:20:39;95888.09;;;16.09;100.00
54038;BME280;39954;48.844;9.726;2022-07-29T02:21:47;95890.50;;;16.01;100.00
54038;BME280;39954;48.844;9.726;2022-07-29T02:22:50;95889.13;;;15.97;100.00
54038;BME280;39954;48.844;9.726;2022-07-29T02:23:59;95894.72;;;15.92;100.00
54038;BME280;39954;48.844;9.726;2022-07-29T02:25:03;95898.66;;;15.86;100.00
54038;BME280;39954;48.844;9.726;2022-07-29T02:26:14;95901.41;;;15.85;100.00
54038;BME280;39954;48.844;9.726;2022-07-29T02:27:20;95891.78;;;15.85;100.00
54038;BME280;39954;48.844;9.726;2022-07-29T02:28:27;95894.66;;;15.82;100.00
54038;BME280;39954;48.844;9.726;2022-07-29T02:29:32;95895.84;;;15.78;100.00
54038;BME280;39954;48.844;9.726;2022-07-29T02:30:39;95897.97;;;15.73;100.00
54038;BME280;39954;48.844;9.726;2022-07-29T02:31:45;95899.28;;;15.67;100.00
54038;BME280;39954;48.844;9.726;2022-07-29T02:32:53;95897.72;;;15.65;100.00
54038;BME280;39954;48.844;9.726;2022-07-29T02:33:59;95895.59;;;15.59;100.00
54038;BME280;39954;48.844;9.726;2022-07-29T02:35:05;95901.09;;;15.56;100.00
54038;BME280;39954;48.844;9.726;2022-07-29T02:36:10;95896.09;;;15.53;100.00
54038;BME280;39954;48.844;9.726;2022-07-29T02:37:16;95900.75;;;15.49;100.00
54038;BME280;39954;48.844;9.726;2022-07-29T02:38:20;95902.78;;;15.45;100.00
54038;BME280;39954;48.844;9.726;2022-07-29T02:39:39;95897.09;;;15.40;100.00
54038;BME280;39954;48.844;9.726;2022-07-29T02:40:45;95896.47;;;15.37;100.00
54038;BME280;39954;48.844;9.726;2022-07-29T02:41:50;95892.56;;;15.31;100.00
54038;BME280;39954;48.844;9.726;2022-07-29T02:42:55;95901.63;;;15.27;100.00
54038;BME280;39954;48.844;9.726;2022-07-29T02:44:03;95900.91;;;15.25;100.00
54038;BME280;39954;48.844;9.726;2022-07-29T02:45:09;95890.78;;;15.20;100.00
54038;BME280;39954;48.844;9.726;2022-07-29T02:46:14;95902.09;;;15.21;100.00
54038;BME280;39954;48.844;9.726;2022-07-29T02:47:35;95901.38;;;15.19;100.00
54038;BME280;39954;48.844;9.726;2022-07-29T02:48:48;95902.34;;;15.18;100.00
54038;BME280;39954;48.844;9.726;2022-07-29T02:49:54;95904.09;;;15.17;100.00
54038;BME280;39954;48.844;9.726;2022-07-29T02:51:05;95905.19;;;15.15;100.00
54038;BME280;39954;48.844;9.726;2022-07-29T02:52:14;95899.84;;;15.16;100.00
54038;BME280;39954;48.844;9.726;2022-07-29T02:53:22;95907.69;;;15.16;100.00
54038;BME280;39954;48.844;9.726;2022-07-29T02:54:31;95905.06;;;15.16;100.00
54038;BME280;39954;48.844;9.726;2022-07-29T02:55:39;95899.59;;;15.19;100.00
54038;BME280;39954;48.844;9.726;2022-07-29T02:56:43;95906.88;;;15.16;100.00
54038;BME280;39954;48.844;9.726;2022-07-29T02:57:53;95905.41;;;15.12;100.00
54038;BME280;39954;48.844;9.726;2022-07-29T02:59:04;95903.03;;;15.09;100.00
54038;BME280;39954;48.844;9.726;2022-07-29T03:00:09;95901.00;;;15.12;100.00
54038;BME280;39954;48.844;9.726;2022-07-29T03:01:16;95896.88;;;15.10;100.00
54038;BME280;39954;48.844;9.726;2022-07-29T03:02:23;95901.63;;;15.05;100.00
54038;BME280;39954;48.844;9.726;2022-07-29T03:03:37;95895.91;;;14.99;100.00
54038;BME280;39954;48.844;9.726;2022-07-29T03:04:41;95895.31;;;14.96;100.00
54038;BME280;39954;48.844;9.726;2022-07-29T03:05:47;95901.97;;;14.89;100.00
54038;BME280;39954;48.844;9.726;2022-07-29T03:06:51;95904.09;;;14.84;100.00
54038;BME280;39954;48.844;9.726;2022-07-29T03:08:00;95899.09;;;14.81;100.00
54038;BME280;39954;48.844;9.726;2022-07-29T03:09:02;95904.34;;;14.81;100.00
54038;BME280;39954;48.844;9.726;2022-07-29T03:10:13;95898.50;;;14.77;100.00
54038;BME280;39954;48.844;9.726;2022-07-29T03:11:18;95896.13;;;14.74;100.00
54038;BME280;39954;48.844;9.726;2022-07-29T03:12:41;95893.53;;;14.74;100.00
54038;BME280;39954;48.844;9.726;2022-07-29T03:13:46;95893.28;;;14.77;100.00
54038;BME280;39954;48.844;9.726;2022-07-29T03:14:48;95893.53;;;14.74;100.00
54038;BME280;39954;48.844;9.726;2022-07-29T03:15:53;95894.25;;;14.76;100.00
54038;BME280;39954;48.844;9.726;2022-07-29T03:16:59;95892.56;;;14.75;100.00
54038;BME280;39954;48.844;9.726;2022-07-29T03:18:05;95890.19;;;14.72;100.00
54038;BME280;39954;48.844;9.726;2022-07-29T03:19:10;95887.22;;;14.76;100.00
54038;BME280;39954;48.844;9.726;2022-07-29T03:20:15;95888.28;;;14.74;100.00
54038;BME280;39954;48.844;9.726;2022-07-29T03:21:17;95890.19;;;14.72;100.00
54038;BME280;39954;48.844;9.726;2022-07-29T03:22:22;95889.69;;;14.67;100.00
54038;BME280;39954;48.844;9.726;2022-07-29T03:23:25;95891.25;;;14.69;100.00
54038;BME280;39954;48.844;9.726;2022-07-29T03:24:37;95896.13;;;14.63;100.00
54038;BME280;39954;48.844;9.726;2022-07-29T03:25:39;95891.00;;;14.61;100.00
54038;BME280;39954;48.844;9.726;2022-07-29T03:26:44;95888.16;;;14.64;100.00
54038;BME280;39954;48.844;9.726;2022-07-29T03:27:47;95890.91;;;14.63;100.00
54038;BME280;39954;48.844;9.726;2022-07-29T03:28:52;95878.97;;;14.59;100.00
54038;BME280;39954;48.844;9.726;2022-07-29T03:29:54;95886.34;;;14.53;100.00
54038;BME280;39954;48.844;9.726;2022-07-29T03:30:59;95889.09;;;14.52;100.00
54038;BME280;39954;48.844;9.726;2022-07-29T03:32:04;95888.94;;;14.53;100.00
54038;BME280;39954;48.844;9.726;2022-07-29T03:33:09;95872.94;;;14.58;100.00
54038;BME280;39954;48.844;9.726;2022-07-29T03:34:17;95878.88;;;14.60;100.00
54038;BME280;39954;48.844;9.726;2022-07-29T03:35:24;95882.66;;;14.56;100.00
54038;BME280;39954;48.844;9.726;2022-07-29T03:36:26;95888.84;;;14.55;100.00
54038;BME280;39954;48.844;9.726;2022-07-29T03:37:31;95879.94;;;14.58;100.00
54038;BME280;39954;48.844;9.726;2022-07-29T03:38:35;95885.28;;;14.56;100.00
54038;BME280;39954;48.844;9.726;2022-07-29T03:39:41;95884.44;;;14.55;100.00
54038;BME280;39954;48.844;9.726;2022-07-29T03:40:48;95882.78;;;14.54;100.00
54038;BME280;39954;48.844;9.726;2022-07-29T03:41:55;95884.34;;;14.57;100.00
54038;BME280;39954;48.844;9.726;2022-07-29T03:43:00;95882.06;;;14.52;100.00
54038;BME280;39954;48.844;9.726;2022-07-29T03:44:07;95885.50;;;14.53;100.00
54038;BME280;39954;48.844;9.726;2022-07-29T03:45:13;95883.53;;;14.57;100.00
54038;BME280;39954;48.844;9.726;2022-07-29T03:46:20;95888.03;;;14.54;100.00
54038;BME280;39954;48.844;9.726;2022-07-29T03:47:27;95874.00;;;14.55;100.00
54038;BME280;39954;48.844;9.726;2022-07-29T03:48:56;95882.78;;;14.54;100.00
54038;BME280;39954;48.844;9.726;2022-07-29T03:50:05;95883.84;;;14.52;100.00
54038;BME280;39954;48.844;9.726;2022-07-29T03:51:11;95888.22;;;14.51;100.00
54038;BME280;39954;48.844;9.726;2022-07-29T03:52:14;95889.69;;;14.55;100.00
54038;BME280;39954;48.844;9.726;2022-07-29T03:53:19;95889.34;;;14.60;100.00
54038;BME280;39954;48.844;9.726;2022-07-29T03:54:21;95884.84;;;14.62;100.00
54038;BME280;39954;48.844;9.726;2022-07-29T03:55:28;95878.53;;;14.65;100.00
54038;BME280;39954;48.844;9.726;2022-07-29T03:56:34;95876.38;;;14.70;100.00
54038;BME280;39954;48.844;9.726;2022-07-29T03:57:39;95882.69;;;14.67;100.00
54038;BME280;39954;48.844;9.726;2022-07-29T03:58:42;95882.34;;;14.72;100.00
54038;BME280;39954;48.844;9.726;2022-07-29T03:59:48;95882.47;;;14.70;100.00
54038;BME280;39954;48.844;9.726;2022-07-29T04:00:50;95881.50;;;14.71;100.00
54038;BME280;39954;48.844;9.726;2022-07-29T04:01:55;95883.31;;;14.71;100.00
54038;BME280;39954;48.844;9.726;2022-07-29T04:02:59;95880.31;;;14.75;100.00
54038;BME280;39954;48.844;9.726;2022-07-29T04:04:05;95884.00;;;14.73;100.00
54038;BME280;39954;48.844;9.726;2022-07-29T04:05:14;95881.38;;;14.73;100.00
54038;BME280;39954;48.844;9.726;2022-07-29T04:06:19;95879.47;;;14.75;100.00
54038;BME280;39954;48.844;9.726;2022-07-29T04:07:21;95885.53;;;14.75;100.00
54038;BME280;39954;48.844;9.726;2022-07-29T04:08:26;95884.94;;;14.72;100.00
54038;BME280;39954;48.844;9.726;2022-07-29T04:09:28;95885.69;;;14.74;100.00
54038;BME280;39954;48.844;9.726;2022-07-29T04:10:33;95880.56;;;14.72;100.00
54038;BME280;39954;48.844;9.726;2022-07-29T04:11:37;95887.56;;;14.72;100.00
54038;BME280;39954;48.844;9.726;2022-07-29T04:13:02;95887.56;;;14.72;100.00
54038;BME280;39954;48.844;9.726;2022-07-29T04:14:07;95889.13;;;14.74;100.00
54038;BME280;39954;48.844;9.726;2022-07-29T04:15:10;95896.88;;;14.76;100.00
54038;BME280;39954;48.844;9.726;2022-07-29T04:16:15;95892.47;;;14.76;100.00
54038;BME280;39954;48.844;9.726;2022-07-29T04:17:17;95899.25;;;14.79;100.00
54038;BME280;39954;48.844;9.726;2022-07-29T04:18:22;95896.38;;;14.82;100.00
54038;BME280;39954;48.844;9.726;2022-07-29T04:19:25;95895.31;;;14.85;100.00
54038;BME280;39954;48.844;9.726;2022-07-29T04:20:32;95896.97;;;14.86;100.00
54038;BME280;39954;48.844;9.726;2022-07-29T04:21:37;95891.41;;;14.90;100.00
54038;BME280;39954;48.844;9.726;2022-07-29T04:22:42;95891.84;;;14.95;100.00
54038;BME280;39954;48.844;9.726;2022-07-29T04:23:44;95894.38;;;14.97;100.00
54038;BME280;39954;48.844;9.726;2022-07-29T04:24:54;95899.59;;;14.97;100.00
54038;BME280;39954;48.844;9.726;2022-07-29T04:26:03;95905.91;;;14.94;100.00
54038;BME280;39954;48.844;9.726;2022-07-29T04:27:11;95904.00;;;14.96;100.00
54038;BME280;39954;48.844;9.726;2022-07-29T04:28:13;95901.38;;;14.96;100.00
54038;BME280;39954;48.844;9.726;2022-07-29T04:29:18;95905.66;;;14.97;100.00
54038;BME280;39954;48.844;9.726;2022-07-29T04:30:20;95912.78;;;14.95;100.00
54038;BME280;39954;48.844;9.726;2022-07-29T04:31:25;95914.47;;;14.96;100.00
54038;BME280;39954;48.844;9.726;2022-07-29T04:32:27;95916.94;;;14.98;100.00
54038;BME280;39954;48.844;9.726;2022-07-29T04:33:31;95914.47;;;14.96;100.00
54038;BME280;39954;48.844;9.726;2022-07-29T04:34:34;95914.47;;;14.96;100.00
54038;BME280;39954;48.844;9.726;2022-07-29T04:35:42;95914.94;;;14.90;100.00
54038;BME280;39954;48.844;9.726;2022-07-29T04:36:51;95920.19;;;14.90;100.00
54038;BME280;39954;48.844;9.726;2022-07-29T04:37:56;95914.94;;;14.90;100.00
54038;BME280;39954;48.844;9.726;2022-07-29T04:38:58;95910.41;;;14.92;100.00
54038;BME280;39954;48.844;9.726;2022-07-29T04:40:05;95911.97;;;14.95;100.00
54038;BME280;39954;48.844;9.726;2022-07-29T04:41:08;95910.88;;;14.97;100.00
54038;BME280;39954;48.844;9.726;2022-07-29T04:42:14;95908.75;;;15.03;100.00
54038;BME280;39954;48.844;9.726;2022-07-29T04:43:28;95913.03;;;15.04;100.00
54038;BME280;39954;48.844;9.726;2022-07-29T04:44:37;95917.09;;;15.08;100.00
54038;BME280;39954;48.844;9.726;2022-07-29T04:45:43;95919.72;;;15.08;100.00
54038;BME280;39954;48.844;9.726;2022-07-29T04:46:48;95921.50;;;15.07;100.00
54038;BME280;39954;48.844;9.726;2022-07-29T04:47:50;95920.63;;;15.07;100.00
54038;BME280;39954;48.844;9.726;2022-07-29T04:48:55;95914.81;;;15.03;100.00
54038;BME280;39954;48.844;9.726;2022-07-29T04:49:57;95917.34;;;15.05;100.00
54038;BME280;39954;48.844;9.726;2022-07-29T04:51:05;95927.81;;;15.05;100.00
54038;BME280;39954;48.844;9.726;2022-07-29T04:52:07;95926.00;;;15.05;100.00
54038;BME280;39954;48.844;9.726;2022-07-29T04:53:12;95929.69;;;15.03;100.00
54038;BME280;39954;48.844;9.726;2022-07-29T04:54:14;95932.22;;;15.04;100.00
54038;BME280;39954;48.844;9.726;2022-07-29T04:55:19;95927.56;;;15.08;100.00
54038;BME280;39954;48.844;9.726;2022-07-29T04:56:21;95929.22;;;15.09;100.00
54038;BME280;39954;48.844;9.726;2022-07-29T04:57:26;95934.44;;;15.09;100.00
54038;BME280;39954;48.844;9.726;2022-07-29T04:58:28;95937.78;;;15.11;100.00
54038;BME280;39954;48.844;9.726;2022-07-29T04:59:33;95937.31;;;15.17;100.00
54038;BME280;39954;48.844;9.726;2022-07-29T05:00:35;95940.88;;;15.16;100.00
54038;BME280;39954;48.844;9.726;2022-07-29T05:01:40;95932.91;;;15.17;100.00
54038;BME280;39954;48.844;9.726;2022-07-29T05:02:43;95931.97;;;15.18;100.00
54038;BME280;39954;48.844;9.726;2022-07-29T05:03:48;95935.41;;;15.19;100.00
54038;BME280;39954;48.844;9.726;2022-07-29T05:04:50;95935.41;;;15.19;100.00
54038;BME280;39954;48.844;9.726;2022-07-29T05:05:55;95942.53;;;15.17;100.00
54038;BME280;39954;48.844;9.726;2022-07-29T05:07:02;95939.00;;;15.18;100.00
54038;BME280;39954;48.844;9.726;2022-07-29T05:08:04;95934.59;;;15.18;100.00
54038;BME280;39954;48.844;9.726;2022-07-29T05:09:09;95938.03;;;15.19;100.00
54038;BME280;39954;48.844;9.726;2022-07-29T05:10:11;95935.16;;;15.22;100.00
54038;BME280;39954;48.844;9.726;2022-07-29T05:11:16;95943.13;;;15.20;100.00
54038;BME280;39954;48.844;9.726;2022-07-29T05:12:23;95939.69;;;15.20;100.00
54038;BME280;39954;48.844;9.726;2022-07-29T05:13:27;95939.44;;;15.23;100.00
54038;BME280;39954;48.844;9.726;2022-07-29T05:14:46;95939.00;;;15.29;100.00
54038;BME280;39954;48.844;9.726;2022-07-29T05:15:50;95933.38;;;15.34;100.00
54038;BME280;39954;48.844;9.726;2022-07-29T05:16:53;95933.13;;;15.37;100.00
54038;BME280;39954;48.844;9.726;2022-07-29T05:17:59;95930.16;;;15.41;100.00
54038;BME280;39954;48.844;9.726;2022-07-29T05:19:01;95928.72;;;15.49;100.00
54038;BME280;39954;48.844;9.726;2022-07-29T05:20:11;95925.63;;;15.55;100.00
54038;BME280;39954;48.844;9.726;2022-07-29T05:21:16;95926.94;;;15.60;100.00
54038;BME280;39954;48.844;9.726;2022-07-29T05:22:21;95921.56;;;15.62;100.00
54038;BME280;39954;48.844;9.726;2022-07-29T05:23:25;95921.31;;;15.65;100.00
54038;BME280;39954;48.844;9.726;2022-07-29T05:24:28;95923.72;;;15.68;100.00
54038;BME280;39954;48.844;9.726;2022-07-29T05:25:32;95926.94;;;15.72;100.00
54038;BME280;39954;48.844;9.726;2022-07-29T05:26:44;95925.88;;;15.74;100.00
54038;BME280;39954;48.844;9.726;2022-07-29T05:27:46;95923.09;;;15.76;100.00
54038;BME280;39954;48.844;9.726;2022-07-29T05:28:51;95922.28;;;15.75;100.00
54038;BME280;39954;48.844;9.726;2022-07-29T05:29:54;95927.03;;;15.81;100.00
54038;BME280;39954;48.844;9.726;2022-07-29T05:30:58;95928.47;;;15.85;100.00
54038;BME280;39954;48.844;9.726;2022-07-29T05:32:00;95928.22;;;15.88;100.00
54038;BME280;39954;48.844;9.726;2022-07-29T05:33:05;95924.38;;;15.93;100.00
54038;BME280;39954;48.844;9.726;2022-07-29T05:34:07;95932.69;;;15.98;100.00
54038;BME280;39954;48.844;9.726;2022-07-29T05:35:14;95930.09;;;15.98;100.00
54038;BME280;39954;48.844;9.726;2022-07-29T05:36:19;95929.56;;;16.04;100.00
54038;BME280;39954;48.844;9.726;2022-07-29T05:37:23;95930.03;;;16.09;100.00
54038;BME280;39954;48.844;9.726;2022-07-29T05:38:28;95933.13;;;16.14;100.00
54038;BME280;39954;48.844;9.726;2022-07-29T05:39:30;95930.97;;;16.19;100.00
54038;BME280;39954;48.844;9.726;2022-07-29T05:40:51;95934.88;;;16.25;100.00
54038;BME280;39954;48.844;9.726;2022-07-29T05:41:53;95935.44;;;16.28;100.00
54038;BME280;39954;48.844;9.726;2022-07-29T05:42:58;95938.53;;;16.33;100.00
54038;BME280;39954;48.844;9.726;2022-07-29T05:44:02;95934.69;;;16.38;100.00
54038;BME280;39954;48.844;9.726;2022-07-29T05:45:05;95935.13;;;16.43;100.00
54038;BME280;39954;48.844;9.726;2022-07-29T05:46:10;95937.25;;;16.49;100.00
54038;BME280;39954;48.844;9.726;2022-07-29T05:47:12;95936.75;;;16.55;100.00